Currie, North Carolina
Current Conditions -  °F | °C
As of 12:53 AM on Wednesday 28 Jan 2015 (Local Time) from KILM Reporting Station
Clear Clear  
Wind Chill: 23°   Ceiling: Unl
Heat Index: 31°   Visibility: 10mi
Dew Point: 23°   Wind: 9mph
Humidity: 72%   Direction: 330°NNW
Pressure: 29.98"   Gusts: NA
Location:  34.46°N, 78.1°W
Report Text: KILM 280553Z AUTO 33008KT 10SM CLR M01/M05 A2998 RMK AO2 SLP152 I6001 T10061050 10028 21017 52016
Loading
Personal Weather Stations






























Interactive Weather Map New forecast layout! Learn more

10-Day Weather Forecast

Advertisements
Track Severe Weather on mobile